Time;durP1;ratioP1;P1;durP2;ratioP2;P2;SDS_P1;SDS_P2;PMS_P1;PMS_P2;Temp;Humidity;BMP_temperature;BMP_pressure;BME280_temperature;BME280_humidity;BME280_pressure;Samples;Min_cycle;Max_cycle;Signal;HPM_P1;HPM_P2
2022/10/21 00:00:36;;;;;;;10.20;4.50;;;17.60;99.90;;;;;;5092857;28;20209;-78
2022/10/21 00:03:02;;;;;;;10.77;4.67;;;17.60;99.90;;;;;;5092626;28;20480;-78
2022/10/21 00:05:28;;;;;;;9.80;4.23;;;17.50;99.90;;;;;;5111281;28;20790;-78
2022/10/21 00:07:54;;;;;;;17.17;4.93;;;17.30;99.90;;;;;;5092580;28;20446;-78
2022/10/21 00:10:22;;;;;;;13.53;4.97;;;17.30;99.90;;;;;;5075588;28;20505;-78
2022/10/21 00:12:47;;;;;;;10.17;5.20;;;17.20;99.90;;;;;;5092660;28;20731;-81
2022/10/21 00:15:13;;;;;;;8.43;4.20;;;17.20;99.90;;;;;;5075719;28;20964;-78
2022/10/21 00:17:40;;;;;;;11.23;4.77;;;17.20;99.90;;;;;;5075887;28;20186;-78
2022/10/21 00:20:09;;;;;;;10.10;4.63;;;17.10;99.90;;;;;;5092549;28;20754;-79
2022/10/21 00:22:36;;;;;;;6.60;4.00;;;17.10;99.90;;;;;;5110992;28;20662;-78
2022/10/21 00:25:02;;;;;;;21.30;4.40;;;17.10;99.90;;;;;;5092427;28;20432;-78
2022/10/21 00:27:28;;;;;;;9.30;4.40;;;17.20;99.90;;;;;;5092498;28;20422;-79
2022/10/21 00:29:54;;;;;;;9.33;4.53;;;17.40;99.90;;;;;;5075161;28;20433;-78
2022/10/21 00:32:19;;;;;;;10.80;4.00;;;17.50;99.90;;;;;;5092618;28;20443;-78
2022/10/21 00:34:46;;;;;;;9.10;3.77;;;17.40;99.90;;;;;;5075649;28;20332;-78
2022/10/21 00:37:13;;;;;;;10.10;4.03;;;17.50;99.90;;;;;;5092954;28;20675;-77
2022/10/21 00:39:38;;;;;;;9.37;3.70;;;17.50;99.90;;;;;;5111047;28;20529;-78
2022/10/21 00:42:06;;;;;;;10.67;3.50;;;17.60;99.90;;;;;;5091575;28;21060;-78
2022/10/21 00:44:34;;;;;;;13.40;4.27;;;17.60;99.90;;;;;;5075108;28;20273;-79
2022/10/21 00:47:17;;;;;;;16.33;4.70;;;17.60;99.90;;;;;;5075178;28;20453;-79
2022/10/21 00:49:57;;;;;;;13.17;5.27;;;17.50;99.90;;;;;;5073361;28;20472;-80
2022/10/21 00:52:23;;;;;;;9.50;4.77;;;17.30;99.90;;;;;;5092261;28;20426;-78
2022/10/21 00:54:54;;;;;;;14.40;5.20;;;17.10;99.90;;;;;;5110544;28;20410;-79
2022/10/21 00:57:22;;;;;;;11.30;3.80;;;17.10;99.90;;;;;;5092827;28;20494;-79
2022/10/21 00:59:52;;;;;;;10.90;4.07;;;17.30;99.90;;;;;;5091988;28;20428;-78
2022/10/21 01:02:20;;;;;;;12.80;3.33;;;17.40;99.90;;;;;;5092000;28;20523;-77
2022/10/21 01:04:47;;;;;;;9.30;3.50;;;17.60;99.90;;;;;;5092036;28;20844;-78
2022/10/21 01:07:12;;;;;;;9.73;4.17;;;17.50;99.90;;;;;;5110535;28;20427;-79
2022/10/21 01:09:38;;;;;;;11.70;4.13;;;17.40;99.90;;;;;;5092069;28;20588;-78
2022/10/21 01:12:13;;;;;;;9.37;3.53;;;17.40;99.90;;;;;;5075705;28;20278;-78
2022/10/21 01:14:55;;;;;;;13.23;3.33;;;17.30;99.90;;;;;;5094031;28;20187;-78
2022/10/21 01:17:35;;;;;;;11.40;3.27;;;17.30;99.90;;;;;;5105569;28;20423;-79
2022/10/21 01:20:38;;;;;;;17.03;3.60;;;17.20;99.90;;;;;;5109802;28;20418;-78
2022/10/21 01:23:41;;;;;;;12.83;3.17;;;17.20;99.90;;;;;;5091581;28;20552;-78
2022/10/21 01:26:29;;;;;;;12.33;3.07;;;17.20;99.90;;;;;;5092012;28;20411;-78
2022/10/21 01:29:33;;;;;;;10.20;4.60;;;17.20;99.90;;;;;;5092277;28;20527;-78
2022/10/21 01:32:09;;;;;;;7.93;3.10;;;17.30;99.90;;;;;;5050701;28;20474;-79
2022/10/21 01:34:56;;;;;;;10.30;3.13;;;17.30;99.90;;;;;;5091874;28;20708;-78
2022/10/21 01:37:30;;;;;;;12.63;3.30;;;17.50;99.90;;;;;;5091702;28;20518;-78
2022/10/21 01:40:12;;;;;;;12.93;3.47;;;17.50;99.90;;;;;;5109862;28;20422;-78
2022/10/21 01:42:57;;;;;;;12.03;2.90;;;17.50;99.90;;;;;;5091164;28;20504;-78
2022/10/21 01:45:22;;;;;;;13.13;3.70;;;17.50;99.90;;;;;;5077017;28;20420;-78
2022/10/21 01:47:59;;;;;;;9.77;2.83;;;17.50;99.90;;;;;;5109513;28;20423;-78
2022/10/21 01:50:27;;;;;;;19.00;4.17;;;17.50;99.90;;;;;;5090735;28;20468;-78
2022/10/21 01:53:05;;;;;;;8.93;3.43;;;17.60;99.90;;;;;;5090947;28;20931;-79
2022/10/21 01:55:32;;;;;;;14.70;3.17;;;17.70;99.90;;;;;;5090921;28;20476;-79
2022/10/21 01:58:13;;;;;;;11.80;3.17;;;17.70;99.90;;;;;;5073840;28;20945;-80
2022/10/21 02:00:42;;;;;;;10.93;3.50;;;17.70;99.90;;;;;;5074217;28;20507;-80
2022/10/21 02:03:15;;;;;;;7.53;3.60;;;17.70;99.90;;;;;;5109138;28;20468;-79
2022/10/21 02:05:41;;;;;;;12.57;2.20;;;17.80;99.90;;;;;;5090772;28;20909;-79
2022/10/21 02:08:07;;;;;;;13.23;3.40;;;17.90;99.90;;;;;;5073685;28;20457;-79
2022/10/21 02:10:37;;;;;;;9.83;3.40;;;18.00;99.90;;;;;;5108625;28;20446;-81
2022/10/21 02:13:07;;;;;;;12.60;2.87;;;18.00;99.90;;;;;;5090707;28;20182;-78
2022/10/21 02:15:34;;;;;;;6.30;2.07;;;18.10;99.90;;;;;;5073636;28;20466;-78
2022/10/21 02:18:09;;;;;;;14.70;2.57;;;18.00;99.90;;;;;;5090808;28;20844;-79
2022/10/21 02:20:42;;;;;;;6.80;2.10;;;17.90;99.90;;;;;;5090644;28;20647;-77
2022/10/21 02:23:14;;;;;;;10.53;2.53;;;17.90;99.90;;;;;;5073408;28;20482;-78
2022/10/21 02:25:42;;;;;;;10.90;2.70;;;17.90;99.90;;;;;;5073803;28;20797;-78
2022/10/21 02:28:09;;;;;;;9.93;2.73;;;17.80;99.90;;;;;;5090407;28;20415;-78
2022/10/21 02:31:09;;;;;;;10.13;2.70;;;17.70;99.90;;;;;;5073245;28;20566;-77
2022/10/21 02:33:59;;;;;;;13.23;5.97;;;17.70;99.90;;;;;;5102190;28;20417;-78
2022/10/21 02:36:32;;;;;;;14.87;8.07;;;17.30;99.90;;;;;;5090290;28;20806;-78
2022/10/21 02:39:03;;;;;;;12.80;9.77;;;16.80;99.90;;;;;;5090214;28;20461;-77
2022/10/21 02:41:30;;;;;;;18.37;9.70;;;16.50;99.90;;;;;;5090007;28;20469;-78
2022/10/21 02:43:59;;;;;;;18.60;10.70;;;16.20;99.90;;;;;;5073329;28;20430;-78
2022/10/21 02:46:30;;;;;;;17.30;10.77;;;16.00;99.90;;;;;;5090672;28;20446;-78
2022/10/21 02:48:55;;;;;;;14.20;9.80;;;15.90;99.90;;;;;;5090031;28;20502;-77
2022/10/21 02:51:21;;;;;;;21.33;10.63;;;15.70;99.90;;;;;;5073313;28;20984;-77
2022/10/21 02:53:46;;;;;;;17.00;10.30;;;15.60;99.90;;;;;;5090433;28;20959;-78
2022/10/21 02:56:12;;;;;;;17.97;10.47;;;15.50;99.90;;;;;;5090304;28;20179;-78
2022/10/21 02:58:38;;;;;;;16.53;11.20;;;15.30;99.90;;;;;;5090260;28;20191;-78
2022/10/21 03:01:03;;;;;;;16.07;11.07;;;15.20;99.90;;;;;;5056033;28;20312;-78
2022/10/21 03:03:30;;;;;;;17.80;11.47;;;15.20;99.90;;;;;;5073732;28;20195;-77
2022/10/21 03:05:57;;;;;;;15.50;10.73;;;15.20;99.90;;;;;;5108885;28;20300;-78
2022/10/21 03:08:22;;;;;;;15.90;10.03;;;15.10;99.90;;;;;;5090383;28;20420;-77
2022/10/21 03:10:49;;;;;;;13.23;6.70;;;15.00;99.90;;;;;;5108992;28;20451;-78
2022/10/21 03:13:15;;;;;;;23.83;5.47;;;15.00;99.90;;;;;;5090749;28;20186;-78
2022/10/21 03:15:41;;;;;;;14.53;4.40;;;15.30;99.90;;;;;;5109534;28;20442;-78
2022/10/21 03:18:06;;;;;;;8.27;4.00;;;15.60;99.90;;;;;;5089694;28;20451;-78
2022/10/21 03:20:32;;;;;;;9.40;3.80;;;15.80;99.90;;;;;;5089720;28;20203;-77
2022/10/21 03:22:58;;;;;;;9.20;2.50;;;16.10;99.90;;;;;;5090885;28;20263;-78
2022/10/21 03:25:23;;;;;;;18.27;3.63;;;16.30;99.90;;;;;;5074459;28;20243;-78
2022/10/21 03:27:50;;;;;;;13.70;2.50;;;16.50;99.90;;;;;;5090689;28;20222;-78
2022/10/21 03:30:15;;;;;;;10.40;3.07;;;16.70;99.90;;;;;;5108510;28;20319;-78
2022/10/21 03:32:41;;;;;;;18.03;3.50;;;16.80;99.90;;;;;;5074012;28;20460;-79
2022/10/21 03:35:07;;;;;;;12.67;2.97;;;16.90;99.90;;;;;;5073522;28;20189;-78
2022/10/21 03:37:33;;;;;;;8.90;2.90;;;17.00;99.90;;;;;;5090989;28;20191;-79
2022/10/21 03:39:59;;;;;;;7.57;2.70;;;17.00;99.90;;;;;;5108365;28;20908;-78
2022/10/21 03:42:25;;;;;;;9.67;2.60;;;17.10;99.90;;;;;;5089931;28;21054;-79
2022/10/21 03:44:51;;;;;;;12.57;2.77;;;17.10;99.90;;;;;;5077211;28;20176;-79
2022/10/21 03:47:17;;;;;;;13.73;2.70;;;17.10;99.90;;;;;;5093566;28;20458;-79
2022/10/21 03:49:42;;;;;;;12.07;3.23;;;17.20;99.90;;;;;;5094098;28;20240;-78
2022/10/21 03:52:08;;;;;;;14.33;4.13;;;17.20;99.90;;;;;;5076580;28;21205;-79
2022/10/21 03:54:34;;;;;;;13.60;3.00;;;17.10;99.90;;;;;;5093243;28;20671;-78
2022/10/21 03:56:59;;;;;;;21.17;3.77;;;17.10;99.90;;;;;;5093384;28;20555;-79
2022/10/21 03:59:25;;;;;;;15.77;4.07;;;17.10;99.90;;;;;;5076155;28;20187;-79
2022/10/21 04:01:51;;;;;;;13.67;2.87;;;17.20;99.90;;;;;;5075587;28;20777;-79
2022/10/21 04:04:16;;;;;;;6.47;3.30;;;17.10;99.90;;;;;;5075985;28;20184;-79
2022/10/21 04:06:42;;;;;;;13.20;2.50;;;17.10;99.90;;;;;;5076083;28;20181;-79
2022/10/21 04:09:08;;;;;;;7.80;3.13;;;17.00;99.90;;;;;;5076161;28;20631;-79
2022/10/21 04:11:33;;;;;;;15.17;3.83;;;17.00;99.90;;;;;;5075843;28;20208;-78
2022/10/21 04:13:59;;;;;;;8.90;3.20;;;16.90;99.90;;;;;;5093026;28;20188;-78
2022/10/21 04:16:25;;;;;;;11.53;2.63;;;16.90;99.90;;;;;;5076030;28;20188;-79
2022/10/21 04:18:50;;;;;;;13.97;3.10;;;16.90;99.90;;;;;;5075882;28;20614;-78
2022/10/21 04:21:16;;;;;;;20.40;4.17;;;16.80;99.90;;;;;;5110871;28;20898;-79
2022/10/21 04:23:42;;;;;;;14.40;2.80;;;16.70;99.90;;;;;;5092456;28;20180;-78
2022/10/21 04:26:08;;;;;;;11.20;3.63;;;16.60;99.90;;;;;;5110164;28;20564;-78
2022/10/21 04:28:34;;;;;;;15.57;3.67;;;16.60;99.90;;;;;;5074415;28;20941;-78
2022/10/21 04:31:00;;;;;;;16.50;3.40;;;16.70;99.90;;;;;;5090521;28;20998;-78
2022/10/21 04:33:26;;;;;;;10.83;3.10;;;16.80;99.90;;;;;;5074051;28;20438;-79
2022/10/21 04:35:55;;;;;;;17.00;4.10;;;16.90;99.90;;;;;;5109423;28;20468;-78
2022/10/21 04:38:21;;;;;;;8.77;2.73;;;17.10;99.90;;;;;;5091212;28;20475;-78
2022/10/21 04:40:53;;;;;;;9.93;2.70;;;17.30;99.90;;;;;;5074100;28;20446;-79
2022/10/21 04:43:19;;;;;;;13.93;3.17;;;17.40;99.90;;;;;;5091748;28;20442;-79
2022/10/21 04:45:45;;;;;;;13.17;3.30;;;17.40;99.90;;;;;;5074156;28;20431;-78
2022/10/21 04:48:12;;;;;;;12.03;2.93;;;17.40;99.90;;;;;;5109298;28;20175;-78
2022/10/21 04:50:38;;;;;;;10.33;2.20;;;17.40;99.90;;;;;;5091126;28;20433;-77
2022/10/21 04:53:04;;;;;;;10.80;3.90;;;17.60;99.90;;;;;;5091226;28;20887;-80
2022/10/21 04:55:29;;;;;;;14.60;3.10;;;17.60;99.90;;;;;;5073342;28;20981;-79
2022/10/21 04:57:55;;;;;;;14.63;3.13;;;17.60;99.90;;;;;;5073799;28;20487;-78
2022/10/21 05:00:21;;;;;;;10.83;3.00;;;17.60;99.90;;;;;;5090644;28;20759;-80
2022/10/21 05:02:48;;;;;;;10.37;3.50;;;17.60;99.90;;;;;;5074038;28;20297;-78
2022/10/21 05:05:14;;;;;;;16.77;3.10;;;17.50;99.90;;;;;;5090835;28;20195;-79
2022/10/21 05:07:40;;;;;;;7.33;2.70;;;17.40;99.90;;;;;;5090546;28;20430;-79
2022/10/21 05:10:06;;;;;;;9.20;2.80;;;17.30;99.90;;;;;;5109234;28;20207;-79
2022/10/21 05:12:32;;;;;;;16.53;3.07;;;17.30;99.90;;;;;;5090741;28;20278;-79
2022/10/21 05:14:59;;;;;;;10.37;3.83;;;17.30;99.90;;;;;;5090436;28;20514;-78
2022/10/21 05:17:25;;;;;;;7.20;2.70;;;17.20;99.90;;;;;;5108794;28;20308;-78
2022/10/21 05:19:51;;;;;;;15.90;3.57;;;17.20;99.90;;;;;;5073299;28;20541;-78
2022/10/21 05:22:16;;;;;;;15.47;3.83;;;17.10;99.90;;;;;;5073298;28;20981;-78
2022/10/21 05:24:42;;;;;;;19.23;4.10;;;17.00;99.90;;;;;;5089743;28;20551;-79
2022/10/21 05:27:07;;;;;;;10.30;3.53;;;16.80;99.90;;;;;;5073238;28;20185;-79
2022/10/21 05:29:33;;;;;;;8.23;3.10;;;16.70;99.90;;;;;;5073338;28;20265;-78
2022/10/21 05:31:59;;;;;;;10.40;3.93;;;16.50;99.90;;;;;;5072925;28;20277;-79
2022/10/21 05:34:24;;;;;;;13.83;3.67;;;16.50;99.90;;;;;;5089836;28;20185;-78
2022/10/21 05:36:50;;;;;;;11.43;3.97;;;16.50;99.90;;;;;;5072763;28;20195;-79
2022/10/21 05:39:16;;;;;;;13.97;3.83;;;16.50;99.90;;;;;;5073104;28;20186;-79
2022/10/21 05:41:41;;;;;;;10.63;4.33;;;16.40;99.90;;;;;;5072708;28;20717;-78
2022/10/21 05:44:07;;;;;;;16.23;4.00;;;16.30;99.90;;;;;;5090006;28;20659;-79
2022/10/21 05:46:33;;;;;;;11.70;4.00;;;16.20;99.90;;;;;;5072913;28;20656;-79
2022/10/21 05:48:58;;;;;;;12.97;3.87;;;16.20;99.90;;;;;;5089740;28;20189;-79
2022/10/21 05:51:25;;;;;;;12.87;4.00;;;16.10;99.90;;;;;;5073043;28;20300;-79
2022/10/21 05:53:54;;;;;;;15.33;4.63;;;16.00;99.90;;;;;;5090156;28;20191;-79
2022/10/21 05:56:21;;;;;;;11.33;4.30;;;15.90;99.90;;;;;;5090105;28;20470;-79
2022/10/21 05:58:47;;;;;;;12.93;3.70;;;15.80;99.90;;;;;;5108604;28;20445;-79
2022/10/21 06:01:12;;;;;;;11.73;4.03;;;15.80;99.90;;;;;;5090487;28;20464;-80
2022/10/21 06:03:38;;;;;;;14.27;4.30;;;15.60;99.90;;;;;;5073782;28;20429;-79
2022/10/21 06:06:06;;;;;;;10.20;3.70;;;15.50;99.90;;;;;;5090487;28;20646;-79
2022/10/21 06:08:33;;;;;;;11.40;4.00;;;15.40;99.90;;;;;;5090394;28;20187;-78
2022/10/21 06:11:03;;;;;;;13.97;4.27;;;15.40;99.90;;;;;;5090451;28;20995;-79
2022/10/21 06:13:29;;;;;;;7.43;3.60;;;15.30;99.90;;;;;;5089942;28;20564;-78
2022/10/21 06:15:55;;;;;;;11.23;4.80;;;15.30;99.90;;;;;;5073071;28;20424;-79
2022/10/21 06:18:21;;;;;;;7.00;4.07;;;15.20;99.90;;;;;;5090005;28;20427;-79
2022/10/21 06:20:47;;;;;;;14.70;4.80;;;15.10;99.90;;;;;;5089335;28;20432;-78
2022/10/21 06:23:14;;;;;;;8.93;3.90;;;15.10;99.90;;;;;;5072672;28;20700;-79
2022/10/21 06:25:39;;;;;;;16.23;4.37;;;15.10;99.90;;;;;;5073353;28;20280;-79
2022/10/21 06:28:05;;;;;;;13.23;3.90;;;15.10;99.90;;;;;;5089235;28;20421;-78
2022/10/21 06:30:31;;;;;;;8.80;4.27;;;15.00;99.90;;;;;;5071896;28;20530;-78
2022/10/21 06:32:57;;;;;;;11.80;4.90;;;15.00;99.90;;;;;;5072257;28;20680;-78
2022/10/21 06:35:22;;;;;;;15.77;4.53;;;15.00;99.90;;;;;;5073002;28;20238;-78
2022/10/21 06:37:48;;;;;;;5.87;3.20;;;15.10;99.90;;;;;;5089414;28;20197;-78
2022/10/21 06:40:13;;;;;;;12.40;3.93;;;15.10;99.90;;;;;;5073252;28;20687;-78
2022/10/21 06:42:39;;;;;;;13.10;3.33;;;15.10;99.90;;;;;;5073532;28;20211;-78
2022/10/21 06:45:05;;;;;;;11.83;3.53;;;15.20;99.90;;;;;;5072562;28;20182;-78
2022/10/21 06:47:31;;;;;;;7.40;2.97;;;15.20;99.90;;;;;;5088327;28;20344;-78
2022/10/21 06:50:01;;;;;;;12.20;3.50;;;15.30;99.90;;;;;;5072000;28;20875;-78
2022/10/21 06:52:28;;;;;;;8.77;3.83;;;15.20;99.90;;;;;;5072808;28;20186;-78
2022/10/21 06:54:54;;;;;;;13.00;3.20;;;15.20;99.90;;;;;;5072107;28;20855;-77
2022/10/21 06:57:19;;;;;;;5.93;2.90;;;15.30;99.90;;;;;;5071701;28;20428;-78
2022/10/21 06:59:46;;;;;;;7.17;3.47;;;15.30;99.90;;;;;;5088767;28;20186;-78
2022/10/21 07:02:11;;;;;;;8.10;3.30;;;15.30;99.90;;;;;;5071775;28;20268;-78
2022/10/21 07:04:37;;;;;;;34.73;17.97;;;15.30;99.90;;;;;;5089260;28;20421;-78
2022/10/21 07:07:03;;;;;;;8.63;5.23;;;15.40;99.90;;;;;;5071966;28;20274;-78
2022/10/21 07:09:29;;;;;;;9.70;3.53;;;15.40;99.90;;;;;;5107817;28;20186;-78
2022/10/21 07:11:55;;;;;;;10.90;4.50;;;15.40;99.90;;;;;;5089071;28;20538;-78
2022/10/21 07:14:20;;;;;;;6.20;3.33;;;15.40;99.90;;;;;;5088875;28;20861;-78
2022/10/21 07:16:47;;;;;;;11.87;3.67;;;15.40;99.90;;;;;;5072096;28;20197;-78
2022/10/21 07:19:13;;;;;;;11.47;3.07;;;15.50;99.90;;;;;;5092264;28;20190;-76
2022/10/21 07:21:39;;;;;;;10.57;4.30;;;15.50;99.90;;;;;;5076219;28;20540;-78
2022/10/21 07:24:05;;;;;;;19.33;3.80;;;15.50;99.90;;;;;;5076310;28;20427;-78
2022/10/21 07:26:32;;;;;;;7.77;3.20;;;15.50;99.90;;;;;;5076218;28;20423;-78
2022/10/21 07:28:59;;;;;;;15.00;4.20;;;15.50;99.90;;;;;;5093109;28;20411;-78
2022/10/21 07:31:26;;;;;;;7.67;3.30;;;15.40;99.90;;;;;;5075537;28;20476;-77
2022/10/21 07:33:52;;;;;;;6.60;3.20;;;15.40;99.90;;;;;;5091998;28;20516;-78
2022/10/21 07:36:22;;;;;;;8.47;3.10;;;15.50;99.90;;;;;;5092076;28;20518;-78
2022/10/21 07:38:49;;;;;;;7.40;3.07;;;15.40;99.90;;;;;;5091889;28;20188;-78
2022/10/21 07:41:21;;;;;;;6.10;2.93;;;15.40;99.90;;;;;;5092001;28;20966;-78
2022/10/21 07:43:48;;;;;;;4.50;2.63;;;15.50;99.90;;;;;;5092070;28;21296;-78
2022/10/21 07:46:14;;;;;;;13.03;3.20;;;15.50;99.90;;;;;;5091837;28;20500;-78
2022/10/21 07:48:40;;;;;;;8.30;2.17;;;15.40;99.90;;;;;;5110269;28;20423;-78
2022/10/21 07:51:10;;;;;;;5.70;2.80;;;15.40;99.90;;;;;;5091853;28;20499;-78
2022/10/21 07:53:36;;;;;;;9.63;2.37;;;15.40;99.90;;;;;;5092033;28;20442;-78
2022/10/21 07:56:14;;;;;;;7.67;2.90;;;15.30;99.90;;;;;;5092033;28;20437;-77
2022/10/21 07:58:40;;;;;;;12.03;3.30;;;15.30;99.90;;;;;;5091896;28;20480;-78
2022/10/21 08:01:07;;;;;;;12.00;3.40;;;15.20;99.90;;;;;;5110255;28;20501;-78
2022/10/21 08:03:32;;;;;;;5.90;3.00;;;15.20;99.90;;;;;;5091578;28;20978;-78
2022/10/21 08:05:59;;;;;;;10.67;3.83;;;15.30;99.90;;;;;;5074697;28;20457;-77
2022/10/21 08:08:25;;;;;;;7.33;3.03;;;15.30;99.90;;;;;;5091895;28;20179;-78
2022/10/21 08:10:51;;;;;;;5.30;2.57;;;15.40;99.90;;;;;;5091548;28;20611;-76
2022/10/21 08:13:17;;;;;;;7.87;3.17;;;15.50;99.90;;;;;;5091748;28;20522;-78
2022/10/21 08:15:44;;;;;;;11.30;3.93;;;15.50;99.90;;;;;;5074178;28;20431;-77
2022/10/21 08:18:10;;;;;;;8.27;2.83;;;15.50;99.90;;;;;;5091653;28;21120;-78
2022/10/21 08:20:40;;;;;;;5.53;2.43;;;15.50;99.90;;;;;;5074643;28;20462;-78
2022/10/21 08:23:06;;;;;;;9.40;3.13;;;15.60;99.90;;;;;;5091832;28;20622;-78
2022/10/21 08:25:32;;;;;;;8.40;3.00;;;15.50;99.90;;;;;;5075407;28;20907;-79
2022/10/21 08:27:57;;;;;;;9.77;3.10;;;15.40;99.90;;;;;;5092195;28;20419;-78
2022/10/21 08:30:28;;;;;;;6.93;2.23;;;15.40;99.90;;;;;;5092105;28;20355;-78
2022/10/21 08:32:55;;;;;;;16.63;2.83;;;15.50;99.90;;;;;;5091194;28;20278;-78
2022/10/21 08:35:20;;;;;;;5.37;2.20;;;15.60;99.90;;;;;;5091129;28;20412;-78
2022/10/21 08:37:47;;;;;;;5.73;2.40;;;15.60;99.90;;;;;;5091117;28;20555;-78
2022/10/21 08:40:13;;;;;;;6.10;2.97;;;15.70;99.90;;;;;;5091773;28;20221;-79
2022/10/21 08:42:41;;;;;;;3.40;2.50;;;15.80;99.90;;;;;;5091774;28;20563;-78
2022/10/21 08:45:14;;;;;;;6.80;2.23;;;15.80;99.90;;;;;;5110836;28;20467;-79
2022/10/21 08:47:44;;;;;;;5.77;2.47;;;15.90;99.90;;;;;;5092347;28;20469;-77
2022/10/21 08:50:28;;;;;;;8.10;2.80;;;16.00;99.90;;;;;;5090736;28;20959;-77
2022/10/21 08:53:16;;;;;;;5.40;2.37;;;16.00;99.90;;;;;;5090751;28;20500;-78
2022/10/21 08:55:44;;;;;;;7.23;2.43;;;16.00;99.90;;;;;;5090841;28;20430;-78
2022/10/21 08:58:17;;;;;;;10.83;2.93;;;16.00;99.90;;;;;;5091364;28;20471;-78
2022/10/21 09:01:00;;;;;;;5.03;2.30;;;16.00;99.90;;;;;;5091498;28;21045;-78
2022/10/21 09:03:43;;;;;;;13.73;2.77;;;16.00;99.90;;;;;;5109537;28;20455;-77
2022/10/21 09:06:20;;;;;;;6.50;2.03;;;16.00;99.90;;;;;;5109167;28;20509;-77
2022/10/21 09:08:53;;;;;;;5.87;2.90;;;16.00;99.90;;;;;;5091062;28;20712;-77
2022/10/21 09:11:41;;;;;;;6.27;2.93;;;16.00;99.90;;;;;;5109728;28;20436;-78
2022/10/21 09:14:10;;;;;;;8.80;2.43;;;16.10;99.90;;;;;;5110118;28;20485;-78
2022/10/21 09:17:12;;;;;;;7.53;2.57;;;16.10;99.90;;;;;;5091035;28;20962;-78
2022/10/21 09:20:03;;;;;;;7.17;2.50;;;16.20;99.90;;;;;;5090248;28;20421;-78
2022/10/21 09:22:54;;;;;;;6.00;2.47;;;16.20;99.90;;;;;;5108394;28;20522;-78
2022/10/21 09:25:46;;;;;;;11.87;2.80;;;16.20;99.90;;;;;;5090673;28;20969;-78
2022/10/21 09:28:14;;;;;;;10.93;3.60;;;16.20;99.90;;;;;;5108176;28;20460;-78
2022/10/21 09:30:41;;;;;;;6.50;2.70;;;16.00;99.90;;;;;;5109859;28;20592;-77
2022/10/21 09:33:25;;;;;;;5.53;2.23;;;16.00;99.90;;;;;;5074840;28;20935;-77
2022/10/21 09:36:04;;;;;;;9.47;2.90;;;16.10;99.90;;;;;;5091439;28;20473;-77
2022/10/21 09:38:55;;;;;;;6.13;3.00;;;16.20;99.90;;;;;;5091170;28;20419;-77
2022/10/21 09:41:25;;;;;;;5.67;2.73;;;16.20;99.90;;;;;;5089836;28;20447;-77
2022/10/21 09:43:50;;;;;;;8.03;2.50;;;16.30;99.90;;;;;;5109621;28;20412;-77
2022/10/21 09:46:17;;;;;;;6.47;2.90;;;16.40;99.90;;;;;;5090757;28;20763;-77
2022/10/21 09:48:49;;;;;;;8.17;3.57;;;16.50;99.90;;;;;;5073677;28;20260;-78
2022/10/21 09:51:25;;;;;;;9.13;2.97;;;16.50;99.90;;;;;;5073145;28;20979;-77
2022/10/21 09:53:53;;;;;;;10.73;2.60;;;16.50;99.90;;;;;;5074455;28;20425;-81
2022/10/21 09:56:37;;;;;;;8.27;2.57;;;16.60;99.90;;;;;;5090058;28;20913;-79
2022/10/21 09:59:12;;;;;;;10.63;3.30;;;16.60;99.90;;;;;;5108654;28;20441;-77
2022/10/21 10:01:41;;;;;;;5.63;1.87;;;16.70;99.90;;;;;;5073973;28;20472;-77
2022/10/21 10:04:11;;;;;;;5.33;2.30;;;16.80;99.90;;;;;;5090252;28;20426;-77
2022/10/21 10:06:42;;;;;;;10.07;2.50;;;16.80;99.90;;;;;;5091612;28;20500;-77
2022/10/21 10:09:24;;;;;;;5.47;2.17;;;16.90;99.90;;;;;;5091411;28;20428;-77
2022/10/21 10:11:59;;;;;;;6.33;2.47;;;16.90;99.90;;;;;;5091689;28;20450;-77
2022/10/21 10:14:32;;;;;;;3.20;2.10;;;16.90;99.90;;;;;;5090266;28;20442;-77
2022/10/21 10:17:24;;;;;;;4.70;2.37;;;16.90;99.90;;;;;;5108881;28;20412;-77
2022/10/21 10:20:12;;;;;;;9.53;2.80;;;17.00;99.90;;;;;;5090780;28;20434;-79
2022/10/21 10:22:43;;;;;;;8.93;2.20;;;17.00;99.90;;;;;;5107783;28;20461;-76
2022/10/21 10:25:12;;;;;;;5.23;2.00;;;17.00;99.90;;;;;;5108503;28;20417;-77
2022/10/21 10:27:51;;;;;;;4.83;2.20;;;17.00;99.90;;;;;;5089383;28;20428;-77
2022/10/21 10:30:17;;;;;;;4.50;2.07;;;17.10;99.90;;;;;;5107497;28;20455;-78
2022/10/21 10:32:44;;;;;;;6.23;2.67;;;17.10;99.90;;;;;;5089731;28;20429;-77
2022/10/21 10:35:28;;;;;;;4.20;1.60;;;17.20;99.90;;;;;;5073012;28;21007;-79
2022/10/21 10:37:57;;;;;;;5.90;2.23;;;17.30;99.90;;;;;;5089488;28;20957;-77
2022/10/21 10:40:31;;;;;;;5.87;2.47;;;17.40;99.90;;;;;;5072866;28;20447;-78
2022/10/21 10:43:05;;;;;;;5.77;1.33;;;17.40;99.90;;;;;;5088752;28;20998;-77
2022/10/21 10:45:31;;;;;;;4.50;1.10;;;17.50;99.90;;;;;;5088936;28;20850;-78
2022/10/21 10:47:59;;;;;;;1.90;1.57;;;17.60;99.90;;;;;;5072261;28;20428;-77
2022/10/21 10:50:45;;;;;;;11.57;3.37;;;17.60;99.90;;;;;;5088936;28;20200;-78
2022/10/21 10:53:33;;;;;;;3.27;0.93;;;17.60;99.90;;;;;;5090680;28;20935;-78
2022/10/21 10:56:19;;;;;;;1.50;1.00;;;17.60;99.90;;;;;;5112129;28;20411;-78
2022/10/21 10:58:53;;;;;;;5.40;1.57;;;17.60;99.90;;;;;;5093086;28;20431;-77
2022/10/21 11:01:31;;;;;;;5.80;1.40;;;17.50;99.90;;;;;;5093350;28;20442;-78
2022/10/21 11:04:05;;;;;;;1.80;1.30;;;17.50;99.90;;;;;;5112152;28;20411;-78
2022/10/21 11:06:41;;;;;;;4.40;1.17;;;17.50;99.90;;;;;;5094475;28;20501;-77
2022/10/21 11:09:07;;;;;;;6.13;1.43;;;17.50;99.90;;;;;;5076556;28;20450;-77
2022/10/21 11:11:43;;;;;;;2.87;0.83;;;17.50;99.90;;;;;;5093202;28;20500;-80
2022/10/21 11:14:15;;;;;;;1.30;0.70;;;17.50;99.90;;;;;;5093854;28;20439;-77
2022/10/21 11:16:46;;;;;;;5.13;0.83;;;17.40;99.90;;;;;;5076767;28;20426;-78
2022/10/21 11:19:41;;;;;;;1.30;0.70;;;17.50;99.90;;;;;;5094028;28;20533;-80
2022/10/21 11:22:20;;;;;;;1.23;0.70;;;17.50;99.90;;;;;;5112361;28;20491;-78
2022/10/21 11:24:58;;;;;;;3.17;1.40;;;17.50;99.90;;;;;;5093954;28;20477;-78
2022/10/21 11:27:55;;;;;;;1.67;0.67;;;17.60;99.90;;;;;;5094795;28;20921;-78
2022/10/21 11:30:27;;;;;;;3.30;0.90;;;17.60;99.90;;;;;;5093439;28;20458;-78
2022/10/21 11:33:03;;;;;;;2.60;0.87;;;17.70;99.90;;;;;;5093253;28;20934;-78
2022/10/21 11:35:36;;;;;;;2.40;1.00;;;17.70;99.90;;;;;;5093632;28;20498;-78
2022/10/21 11:38:35;;;;;;;2.40;0.97;;;17.60;99.90;;;;;;5092970;28;20427;-78
2022/10/21 11:41:06;;;;;;;2.37;0.60;;;17.70;99.90;;;;;;5092853;28;20456;-78
2022/10/21 11:43:56;;;;;;;1.63;0.80;;;17.70;99.90;;;;;;5111678;28;20467;-80
2022/10/21 11:46:55;;;;;;;4.50;0.80;;;17.60;99.90;;;;;;5111461;28;20964;-78
2022/10/21 11:49:24;;;;;;;1.57;1.00;;;17.60;99.90;;;;;;5111412;28;20408;-78
2022/10/21 11:52:10;;;;;;;2.77;0.90;;;17.60;99.90;;;;;;5093118;28;20663;-78
2022/10/21 11:54:45;;;;;;;1.13;0.60;;;17.60;99.90;;;;;;5111445;28;20400;-77
2022/10/21 11:57:22;;;;;;;4.60;0.93;;;17.60;99.90;;;;;;5111470;28;20409;-78
2022/10/21 12:00:20;;;;;;;3.73;0.80;;;17.60;99.90;;;;;;5111757;28;20424;-78
2022/10/21 12:03:39;;;;;;;2.83;0.83;;;17.60;99.90;;;;;;5092971;28;20471;-79
2022/10/21 12:06:27;;;;;;;3.20;0.80;;;17.60;99.90;;;;;;5027667;28;20425;-78
2022/10/21 12:09:15;;;;;;;1.30;0.80;;;17.60;99.90;;;;;;5013934;28;20559;-83
2022/10/21 12:11:56;;;;;;;2.03;1.00;;;17.60;99.90;;;;;;5027695;28;20511;-78
2022/10/21 12:14:33;;;;;;;2.93;1.07;;;17.50;99.90;;;;;;5027743;28;20425;-81
2022/10/21 12:17:06;;;;;;;1.10;0.63;;;17.50;99.90;;;;;;5060259;28;20791;-78
2022/10/21 12:19:33;;;;;;;2.60;0.77;;;17.50;99.90;;;;;;5075885;28;20771;-78
2022/10/21 12:21:59;;;;;;;2.33;0.90;;;17.50;99.90;;;;;;5074947;28;20521;-78
2022/10/21 12:24:57;;;;;;;6.43;1.90;;;17.50;99.90;;;;;;5091743;28;20420;-78
2022/10/21 12:27:26;;;;;;;0.90;0.60;;;17.50;99.90;;;;;;5106641;28;20426;-77
2022/10/21 12:29:58;;;;;;;1.97;0.60;;;17.60;99.90;;;;;;5091178;28;20425;-78
2022/10/21 12:32:32;;;;;;;1.77;0.73;;;17.60;99.90;;;;;;5091841;28;20441;-78
2022/10/21 12:35:00;;;;;;;1.70;0.70;;;17.60;99.90;;;;;;5109772;28;20424;-79
2022/10/21 12:37:42;;;;;;;1.70;0.80;;;17.70;99.90;;;;;;5074153;28;20430;-78
2022/10/21 12:40:36;;;;;;;1.50;0.70;;;17.80;99.90;;;;;;5109700;28;20468;-78
2022/10/21 12:43:18;;;;;;;1.00;0.50;;;17.70;99.90;;;;;;5087633;28;20479;-79
2022/10/21 12:45:45;;;;;;;2.33;0.80;;;17.70;99.90;;;;;;5088146;28;20422;-77
2022/10/21 12:48:31;;;;;;;3.93;1.43;;;17.50;99.90;;;;;;5109434;28;20430;-78
2022/10/21 12:51:01;;;;;;;2.93;0.60;;;17.60;99.90;;;;;;5090992;28;20440;-79
2022/10/21 12:53:39;;;;;;;1.27;0.60;;;17.60;99.90;;;;;;5091085;28;20450;-78
2022/10/21 12:56:06;;;;;;;3.10;0.70;;;17.70;99.90;;;;;;5109351;28;20501;-78
2022/10/21 12:58:44;;;;;;;1.37;0.83;;;17.80;99.90;;;;;;5074135;28;20427;-78
2022/10/21 13:01:32;;;;;;;1.10;0.83;;;17.80;99.90;;;;;;5092503;28;20533;-78